Terminal Aerodrome Forecast
Issued by NWS Tulsa, OK

Home | Current Version | Previous Version | Text Only | Print | Product List | Glossary On
Versions: 1 2 3 4 5 6 7 8 9 10 11 12 13 14 15 16 17
000
FTUS44 KTSA 011500 AAB
TAFFSM
TAF AMD
KFSM 011505Z 0115/0212 04007KT 3SM BR OVC006
     FM011700 26007KT P6SM OVC012
     FM012000 28017G24KT P6SM OVC025
     FM020300 31015KT P6SM OVC050
     FM020900 30010KT P6SM SKC=

USA.gov is the U.S. government's official web portal to all federal, state and local government web resources and services.